sensor_id;sensor_type;location;lat;lon;timestamp;P1;durP1;ratioP1;P2;durP2;ratioP2
50429;SDS011;36359;41.556;-8.418;2023-12-20T00:01:05;73.23;;;52.37;;
50429;SDS011;36359;41.556;-8.418;2023-12-20T00:03:30;70.53;;;50.17;;
50429;SDS011;36359;41.556;-8.418;2023-12-20T00:05:56;71.67;;;52.67;;
50429;SDS011;36359;41.556;-8.418;2023-12-20T00:08:22;77.57;;;56.33;;
50429;SDS011;36359;41.556;-8.418;2023-12-20T00:10:48;69.73;;;51.40;;
50429;SDS011;36359;41.556;-8.418;2023-12-20T00:13:13;74.70;;;53.67;;
50429;SDS011;36359;41.556;-8.418;2023-12-20T00:15:39;70.03;;;54.17;;
50429;SDS011;36359;41.556;-8.418;2023-12-20T00:18:05;72.60;;;53.50;;
50429;SDS011;36359;41.556;-8.418;2023-12-20T00:20:30;71.57;;;54.80;;
50429;SDS011;36359;41.556;-8.418;2023-12-20T00:22:56;81.00;;;57.83;;
50429;SDS011;36359;41.556;-8.418;2023-12-20T00:25:25;76.07;;;55.20;;
50429;SDS011;36359;41.556;-8.418;2023-12-20T00:27:51;68.63;;;52.40;;
50429;SDS011;36359;41.556;-8.418;2023-12-20T00:30:17;71.60;;;52.93;;
50429;SDS011;36359;41.556;-8.418;2023-12-20T00:32:43;75.63;;;52.87;;
50429;SDS011;36359;41.556;-8.418;2023-12-20T00:35:12;75.83;;;57.23;;
50429;SDS011;36359;41.556;-8.418;2023-12-20T00:37:38;75.00;;;56.17;;
50429;SDS011;36359;41.556;-8.418;2023-12-20T00:40:04;71.10;;;52.37;;
50429;SDS011;36359;41.556;-8.418;2023-12-20T00:42:31;69.07;;;52.27;;
50429;SDS011;36359;41.556;-8.418;2023-12-20T00:44:58;71.13;;;50.67;;
50429;SDS011;36359;41.556;-8.418;2023-12-20T00:47:24;70.27;;;51.90;;
50429;SDS011;36359;41.556;-8.418;2023-12-20T00:49:50;66.43;;;50.30;;
50429;SDS011;36359;41.556;-8.418;2023-12-20T00:52:15;67.57;;;50.80;;
50429;SDS011;36359;41.556;-8.418;2023-12-20T00:54:43;73.43;;;54.83;;
50429;SDS011;36359;41.556;-8.418;2023-12-20T00:57:09;60.63;;;47.33;;
50429;SDS011;36359;41.556;-8.418;2023-12-20T00:59:34;67.73;;;49.83;;
50429;SDS011;36359;41.556;-8.418;2023-12-20T01:02:00;69.10;;;53.00;;
50429;SDS011;36359;41.556;-8.418;2023-12-20T01:04:26;68.13;;;51.73;;
50429;SDS011;36359;41.556;-8.418;2023-12-20T01:06:52;65.87;;;50.00;;
50429;SDS011;36359;41.556;-8.418;2023-12-20T01:09:18;64.37;;;49.97;;
50429;SDS011;36359;41.556;-8.418;2023-12-20T01:11:44;63.33;;;49.27;;
50429;SDS011;36359;41.556;-8.418;2023-12-20T01:14:11;63.93;;;50.33;;
50429;SDS011;36359;41.556;-8.418;2023-12-20T01:16:37;59.53;;;47.53;;
50429;SDS011;36359;41.556;-8.418;2023-12-20T01:19:03;54.67;;;42.67;;
50429;SDS011;36359;41.556;-8.418;2023-12-20T01:21:29;55.93;;;43.30;;
50429;SDS011;36359;41.556;-8.418;2023-12-20T01:23:54;53.53;;;40.53;;
50429;SDS011;36359;41.556;-8.418;2023-12-20T01:26:20;56.60;;;43.13;;
50429;SDS011;36359;41.556;-8.418;2023-12-20T01:28:46;55.07;;;42.83;;
50429;SDS011;36359;41.556;-8.418;2023-12-20T01:31:11;57.73;;;45.93;;
50429;SDS011;36359;41.556;-8.418;2023-12-20T01:33:37;62.47;;;49.93;;
50429;SDS011;36359;41.556;-8.418;2023-12-20T01:36:03;63.23;;;47.97;;
50429;SDS011;36359;41.556;-8.418;2023-12-20T01:38:29;53.87;;;40.97;;
50429;SDS011;36359;41.556;-8.418;2023-12-20T01:40:55;64.87;;;50.80;;
50429;SDS011;36359;41.556;-8.418;2023-12-20T01:43:21;63.77;;;50.23;;
50429;SDS011;36359;41.556;-8.418;2023-12-20T01:45:47;69.00;;;52.33;;
50429;SDS011;36359;41.556;-8.418;2023-12-20T01:48:13;65.80;;;52.07;;
50429;SDS011;36359;41.556;-8.418;2023-12-20T01:50:41;60.90;;;49.77;;
50429;SDS011;36359;41.556;-8.418;2023-12-20T01:53:08;75.63;;;59.07;;
50429;SDS011;36359;41.556;-8.418;2023-12-20T01:55:37;85.10;;;62.17;;
50429;SDS011;36359;41.556;-8.418;2023-12-20T01:58:05;78.50;;;60.97;;
50429;SDS011;36359;41.556;-8.418;2023-12-20T02:00:33;81.67;;;60.93;;
50429;SDS011;36359;41.556;-8.418;2023-12-20T02:03:00;88.33;;;65.40;;
50429;SDS011;36359;41.556;-8.418;2023-12-20T02:05:29;89.37;;;66.50;;
50429;SDS011;36359;41.556;-8.418;2023-12-20T02:07:56;81.67;;;63.13;;
50429;SDS011;36359;41.556;-8.418;2023-12-20T02:10:22;78.37;;;59.43;;
50429;SDS011;36359;41.556;-8.418;2023-12-20T02:12:49;85.20;;;63.67;;
50429;SDS011;36359;41.556;-8.418;2023-12-20T02:15:14;80.33;;;61.00;;
50429;SDS011;36359;41.556;-8.418;2023-12-20T02:17:40;76.63;;;57.77;;
50429;SDS011;36359;41.556;-8.418;2023-12-20T02:20:06;85.83;;;59.70;;
50429;SDS011;36359;41.556;-8.418;2023-12-20T02:22:32;80.97;;;61.17;;
50429;SDS011;36359;41.556;-8.418;2023-12-20T02:24:58;74.23;;;58.03;;
50429;SDS011;36359;41.556;-8.418;2023-12-20T02:27:24;76.07;;;57.77;;
50429;SDS011;36359;41.556;-8.418;2023-12-20T02:29:50;51.03;;;36.23;;
50429;SDS011;36359;41.556;-8.418;2023-12-20T02:32:19;75.60;;;57.73;;
50429;SDS011;36359;41.556;-8.418;2023-12-20T02:34:49;75.37;;;58.23;;
50429;SDS011;36359;41.556;-8.418;2023-12-20T02:37:15;77.77;;;59.80;;
50429;SDS011;36359;41.556;-8.418;2023-12-20T02:39:41;77.63;;;57.50;;
50429;SDS011;36359;41.556;-8.418;2023-12-20T02:42:06;81.43;;;59.97;;
50429;SDS011;36359;41.556;-8.418;2023-12-20T02:44:32;80.57;;;61.60;;
50429;SDS011;36359;41.556;-8.418;2023-12-20T02:46:58;81.57;;;60.93;;
50429;SDS011;36359;41.556;-8.418;2023-12-20T02:49:24;80.00;;;61.07;;
50429;SDS011;36359;41.556;-8.418;2023-12-20T02:51:49;80.07;;;62.57;;
50429;SDS011;36359;41.556;-8.418;2023-12-20T02:54:15;78.83;;;60.20;;
50429;SDS011;36359;41.556;-8.418;2023-12-20T02:56:41;70.97;;;55.10;;
50429;SDS011;36359;41.556;-8.418;2023-12-20T02:59:07;81.60;;;60.93;;
50429;SDS011;36359;41.556;-8.418;2023-12-20T03:01:33;86.63;;;63.30;;
50429;SDS011;36359;41.556;-8.418;2023-12-20T03:04:00;79.37;;;63.63;;
50429;SDS011;36359;41.556;-8.418;2023-12-20T03:06:26;77.37;;;58.97;;
50429;SDS011;36359;41.556;-8.418;2023-12-20T03:08:51;83.40;;;63.30;;
50429;SDS011;36359;41.556;-8.418;2023-12-20T03:11:17;73.53;;;57.10;;
50429;SDS011;36359;41.556;-8.418;2023-12-20T03:13:43;70.83;;;56.27;;
50429;SDS011;36359;41.556;-8.418;2023-12-20T03:16:10;75.93;;;57.20;;
50429;SDS011;36359;41.556;-8.418;2023-12-20T03:18:36;71.43;;;55.07;;
50429;SDS011;36359;41.556;-8.418;2023-12-20T03:21:02;80.53;;;57.00;;
50429;SDS011;36359;41.556;-8.418;2023-12-20T03:23:29;70.73;;;55.77;;
50429;SDS011;36359;41.556;-8.418;2023-12-20T03:25:56;71.43;;;56.50;;
50429;SDS011;36359;41.556;-8.418;2023-12-20T03:28:22;70.10;;;51.77;;
50429;SDS011;36359;41.556;-8.418;2023-12-20T03:30:48;46.77;;;35.57;;
50429;SDS011;36359;41.556;-8.418;2023-12-20T03:33:14;65.67;;;50.53;;
50429;SDS011;36359;41.556;-8.418;2023-12-20T03:35:40;68.07;;;52.70;;
50429;SDS011;36359;41.556;-8.418;2023-12-20T03:38:06;74.17;;;55.23;;
50429;SDS011;36359;41.556;-8.418;2023-12-20T03:40:32;68.67;;;52.77;;
50429;SDS011;36359;41.556;-8.418;2023-12-20T03:42:58;63.30;;;50.77;;
50429;SDS011;36359;41.556;-8.418;2023-12-20T03:45:24;69.30;;;52.47;;
50429;SDS011;36359;41.556;-8.418;2023-12-20T03:47:49;66.50;;;52.17;;
50429;SDS011;36359;41.556;-8.418;2023-12-20T03:50:22;52.97;;;41.38;;
50429;SDS011;36359;41.556;-8.418;2023-12-20T03:52:48;64.03;;;49.50;;
50429;SDS011;36359;41.556;-8.418;2023-12-20T03:55:15;56.27;;;43.53;;
50429;SDS011;36359;41.556;-8.418;2023-12-20T03:57:40;50.63;;;41.33;;
50429;SDS011;36359;41.556;-8.418;2023-12-20T04:00:09;48.30;;;37.77;;
50429;SDS011;36359;41.556;-8.418;2023-12-20T04:02:39;44.37;;;34.67;;
50429;SDS011;36359;41.556;-8.418;2023-12-20T04:05:05;42.63;;;33.70;;
50429;SDS011;36359;41.556;-8.418;2023-12-20T04:07:32;37.93;;;28.20;;
50429;SDS011;36359;41.556;-8.418;2023-12-20T04:09:57;37.17;;;30.27;;
50429;SDS011;36359;41.556;-8.418;2023-12-20T04:12:23;38.33;;;29.10;;
50429;SDS011;36359;41.556;-8.418;2023-12-20T04:14:49;35.37;;;28.60;;
50429;SDS011;36359;41.556;-8.418;2023-12-20T04:17:15;35.00;;;28.10;;
50429;SDS011;36359;41.556;-8.418;2023-12-20T04:19:42;38.73;;;30.87;;
50429;SDS011;36359;41.556;-8.418;2023-12-20T04:22:08;39.37;;;31.37;;
50429;SDS011;36359;41.556;-8.418;2023-12-20T04:24:34;39.43;;;31.63;;
50429;SDS011;36359;41.556;-8.418;2023-12-20T04:27:00;35.97;;;29.13;;
50429;SDS011;36359;41.556;-8.418;2023-12-20T04:29:26;33.50;;;27.40;;
50429;SDS011;36359;41.556;-8.418;2023-12-20T04:31:52;32.20;;;25.70;;
50429;SDS011;36359;41.556;-8.418;2023-12-20T04:34:18;32.90;;;26.27;;
50429;SDS011;36359;41.556;-8.418;2023-12-20T04:36:44;35.10;;;26.57;;
50429;SDS011;36359;41.556;-8.418;2023-12-20T04:39:09;29.77;;;24.40;;
50429;SDS011;36359;41.556;-8.418;2023-12-20T04:41:36;33.60;;;25.23;;
50429;SDS011;36359;41.556;-8.418;2023-12-20T04:44:02;29.20;;;25.67;;
50429;SDS011;36359;41.556;-8.418;2023-12-20T04:46:28;31.03;;;23.33;;
50429;SDS011;36359;41.556;-8.418;2023-12-20T04:48:53;31.23;;;23.43;;
50429;SDS011;36359;41.556;-8.418;2023-12-20T04:51:19;28.17;;;22.47;;
50429;SDS011;36359;41.556;-8.418;2023-12-20T04:53:45;27.93;;;22.90;;
50429;SDS011;36359;41.556;-8.418;2023-12-20T04:56:11;28.23;;;22.40;;
50429;SDS011;36359;41.556;-8.418;2023-12-20T04:58:37;25.90;;;20.97;;
50429;SDS011;36359;41.556;-8.418;2023-12-20T05:01:03;25.67;;;20.07;;
50429;SDS011;36359;41.556;-8.418;2023-12-20T05:03:31;22.63;;;18.50;;
50429;SDS011;36359;41.556;-8.418;2023-12-20T05:05:56;20.70;;;16.47;;
50429;SDS011;36359;41.556;-8.418;2023-12-20T05:08:22;23.77;;;17.93;;
50429;SDS011;36359;41.556;-8.418;2023-12-20T05:10:48;20.27;;;16.17;;
50429;SDS011;36359;41.556;-8.418;2023-12-20T05:13:14;20.07;;;15.53;;
50429;SDS011;36359;41.556;-8.418;2023-12-20T05:15:39;21.33;;;15.73;;
50429;SDS011;36359;41.556;-8.418;2023-12-20T05:18:05;20.10;;;16.17;;
50429;SDS011;36359;41.556;-8.418;2023-12-20T05:20:31;22.30;;;17.53;;
50429;SDS011;36359;41.556;-8.418;2023-12-20T05:22:57;21.73;;;16.93;;
50429;SDS011;36359;41.556;-8.418;2023-12-20T05:25:22;24.03;;;18.50;;
50429;SDS011;36359;41.556;-8.418;2023-12-20T05:27:48;25.73;;;21.30;;
50429;SDS011;36359;41.556;-8.418;2023-12-20T05:30:14;27.37;;;21.37;;
50429;SDS011;36359;41.556;-8.418;2023-12-20T05:32:40;26.47;;;21.03;;
50429;SDS011;36359;41.556;-8.418;2023-12-20T05:35:05;25.40;;;19.63;;
50429;SDS011;36359;41.556;-8.418;2023-12-20T05:37:31;25.23;;;19.33;;
50429;SDS011;36359;41.556;-8.418;2023-12-20T05:39:57;25.40;;;18.93;;
50429;SDS011;36359;41.556;-8.418;2023-12-20T05:42:23;25.27;;;19.33;;
50429;SDS011;36359;41.556;-8.418;2023-12-20T05:44:48;23.00;;;17.60;;
50429;SDS011;36359;41.556;-8.418;2023-12-20T05:47:14;20.67;;;16.33;;
50429;SDS011;36359;41.556;-8.418;2023-12-20T05:49:40;22.53;;;16.70;;
50429;SDS011;36359;41.556;-8.418;2023-12-20T05:52:05;20.77;;;15.90;;
50429;SDS011;36359;41.556;-8.418;2023-12-20T05:54:31;19.43;;;14.53;;
50429;SDS011;36359;41.556;-8.418;2023-12-20T05:56:57;18.97;;;14.33;;
50429;SDS011;36359;41.556;-8.418;2023-12-20T05:59:23;18.30;;;14.23;;
50429;SDS011;36359;41.556;-8.418;2023-12-20T06:01:49;20.20;;;14.47;;
50429;SDS011;36359;41.556;-8.418;2023-12-20T06:04:14;20.63;;;15.93;;
50429;SDS011;36359;41.556;-8.418;2023-12-20T06:06:41;11.90;;;8.90;;
50429;SDS011;36359;41.556;-8.418;2023-12-20T06:09:07;16.37;;;12.10;;
50429;SDS011;36359;41.556;-8.418;2023-12-20T06:11:33;15.10;;;11.67;;
50429;SDS011;36359;41.556;-8.418;2023-12-20T06:13:59;15.53;;;11.63;;
50429;SDS011;36359;41.556;-8.418;2023-12-20T06:16:25;15.33;;;11.03;;
50429;SDS011;36359;41.556;-8.418;2023-12-20T06:18:50;14.03;;;9.30;;
50429;SDS011;36359;41.556;-8.418;2023-12-20T06:21:16;8.23;;;5.83;;
50429;SDS011;36359;41.556;-8.418;2023-12-20T06:23:42;9.27;;;7.07;;
50429;SDS011;36359;41.556;-8.418;2023-12-20T06:26:07;7.70;;;4.40;;
50429;SDS011;36359;41.556;-8.418;2023-12-20T06:28:33;6.87;;;4.27;;
50429;SDS011;36359;41.556;-8.418;2023-12-20T06:30:59;4.40;;;3.67;;
50429;SDS011;36359;41.556;-8.418;2023-12-20T06:33:26;3.57;;;2.50;;
50429;SDS011;36359;41.556;-8.418;2023-12-20T06:35:52;5.90;;;3.17;;
50429;SDS011;36359;41.556;-8.418;2023-12-20T06:38:17;3.90;;;1.90;;
50429;SDS011;36359;41.556;-8.418;2023-12-20T06:40:44;6.77;;;4.33;;
50429;SDS011;36359;41.556;-8.418;2023-12-20T06:43:11;4.67;;;2.53;;
50429;SDS011;36359;41.556;-8.418;2023-12-20T06:45:37;2.93;;;1.57;;
50429;SDS011;36359;41.556;-8.418;2023-12-20T06:48:03;1.93;;;0.90;;
50429;SDS011;36359;41.556;-8.418;2023-12-20T06:50:29;2.87;;;1.87;;
50429;SDS011;36359;41.556;-8.418;2023-12-20T06:52:55;3.70;;;2.47;;
50429;SDS011;36359;41.556;-8.418;2023-12-20T06:55:21;2.77;;;1.60;;
50429;SDS011;36359;41.556;-8.418;2023-12-20T06:57:46;3.87;;;2.73;;
50429;SDS011;36359;41.556;-8.418;2023-12-20T07:00:12;4.13;;;2.10;;
50429;SDS011;36359;41.556;-8.418;2023-12-20T07:02:38;1.97;;;0.90;;
50429;SDS011;36359;41.556;-8.418;2023-12-20T07:05:04;4.93;;;3.40;;
50429;SDS011;36359;41.556;-8.418;2023-12-20T07:07:30;3.37;;;2.33;;
50429;SDS011;36359;41.556;-8.418;2023-12-20T07:09:56;4.83;;;1.30;;
50429;SDS011;36359;41.556;-8.418;2023-12-20T07:12:22;4.07;;;2.37;;
50429;SDS011;36359;41.556;-8.418;2023-12-20T07:14:47;4.63;;;2.93;;
50429;SDS011;36359;41.556;-8.418;2023-12-20T07:17:13;3.10;;;1.70;;
50429;SDS011;36359;41.556;-8.418;2023-12-20T07:19:40;2.33;;;0.90;;
50429;SDS011;36359;41.556;-8.418;2023-12-20T07:22:06;6.13;;;3.80;;
50429;SDS011;36359;41.556;-8.418;2023-12-20T07:24:32;4.57;;;2.40;;
50429;SDS011;36359;41.556;-8.418;2023-12-20T07:26:59;3.57;;;1.23;;
50429;SDS011;36359;41.556;-8.418;2023-12-20T07:29:28;4.10;;;2.67;;
50429;SDS011;36359;41.556;-8.418;2023-12-20T07:31:53;3.97;;;1.30;;
50429;SDS011;36359;41.556;-8.418;2023-12-20T07:34:22;4.13;;;3.00;;
50429;SDS011;36359;41.556;-8.418;2023-12-20T07:36:48;4.13;;;1.47;;
50429;SDS011;36359;41.556;-8.418;2023-12-20T07:39:14;11.50;;;1.37;;
50429;SDS011;36359;41.556;-8.418;2023-12-20T07:41:40;7.53;;;1.40;;
50429;SDS011;36359;41.556;-8.418;2023-12-20T07:44:06;4.90;;;2.57;;
50429;SDS011;36359;41.556;-8.418;2023-12-20T07:46:32;7.47;;;2.40;;
50429;SDS011;36359;41.556;-8.418;2023-12-20T07:48:57;7.80;;;2.77;;
50429;SDS011;36359;41.556;-8.418;2023-12-20T07:51:23;5.93;;;2.13;;
50429;SDS011;36359;41.556;-8.418;2023-12-20T07:53:49;3.00;;;1.07;;
50429;SDS011;36359;41.556;-8.418;2023-12-20T07:56:15;2.87;;;0.93;;
50429;SDS011;36359;41.556;-8.418;2023-12-20T07:58:42;4.00;;;1.60;;
50429;SDS011;36359;41.556;-8.418;2023-12-20T08:01:08;4.43;;;1.67;;
50429;SDS011;36359;41.556;-8.418;2023-12-20T08:03:34;4.77;;;1.53;;
50429;SDS011;36359;41.556;-8.418;2023-12-20T08:05:59;5.63;;;3.10;;
50429;SDS011;36359;41.556;-8.418;2023-12-20T08:08:26;4.27;;;1.73;;
50429;SDS011;36359;41.556;-8.418;2023-12-20T08:10:51;4.13;;;1.60;;
50429;SDS011;36359;41.556;-8.418;2023-12-20T08:13:17;3.33;;;2.23;;
50429;SDS011;36359;41.556;-8.418;2023-12-20T08:15:43;3.13;;;1.67;;
50429;SDS011;36359;41.556;-8.418;2023-12-20T08:18:09;6.10;;;4.17;;
50429;SDS011;36359;41.556;-8.418;2023-12-20T08:20:34;5.30;;;2.23;;
50429;SDS011;36359;41.556;-8.418;2023-12-20T08:23:00;5.53;;;2.37;;
50429;SDS011;36359;41.556;-8.418;2023-12-20T08:25:26;4.23;;;2.17;;
50429;SDS011;36359;41.556;-8.418;2023-12-20T08:27:52;4.40;;;2.27;;
50429;SDS011;36359;41.556;-8.418;2023-12-20T08:30:18;6.67;;;4.10;;
50429;SDS011;36359;41.556;-8.418;2023-12-20T08:32:49;4.57;;;3.00;;
50429;SDS011;36359;41.556;-8.418;2023-12-20T08:35:15;6.40;;;2.67;;
50429;SDS011;36359;41.556;-8.418;2023-12-20T08:37:42;4.57;;;1.77;;
50429;SDS011;36359;41.556;-8.418;2023-12-20T08:40:07;5.47;;;1.40;;
50429;SDS011;36359;41.556;-8.418;2023-12-20T08:42:33;12.03;;;3.27;;
50429;SDS011;36359;41.556;-8.418;2023-12-20T08:44:59;8.63;;;3.37;;
50429;SDS011;36359;41.556;-8.418;2023-12-20T08:47:25;8.20;;;3.63;;
50429;SDS011;36359;41.556;-8.418;2023-12-20T08:49:52;8.67;;;4.10;;
50429;SDS011;36359;41.556;-8.418;2023-12-20T08:52:23;10.63;;;3.57;;
50429;SDS011;36359;41.556;-8.418;2023-12-20T08:54:50;8.67;;;2.60;;
50429;SDS011;36359;41.556;-8.418;2023-12-20T08:57:20;6.10;;;2.70;;
50429;SDS011;36359;41.556;-8.418;2023-12-20T08:59:46;7.43;;;2.13;;
50429;SDS011;36359;41.556;-8.418;2023-12-20T09:02:13;6.73;;;2.47;;
50429;SDS011;36359;41.556;-8.418;2023-12-20T09:04:39;6.67;;;2.17;;
50429;SDS011;36359;41.556;-8.418;2023-12-20T09:07:05;3.90;;;1.03;;
50429;SDS011;36359;41.556;-8.418;2023-12-20T09:09:31;4.53;;;0.87;;
50429;SDS011;36359;41.556;-8.418;2023-12-20T09:11:57;3.33;;;0.67;;
50429;SDS011;36359;41.556;-8.418;2023-12-20T09:14:23;3.23;;;0.73;;
50429;SDS011;36359;41.556;-8.418;2023-12-20T09:16:49;5.93;;;0.60;;
50429;SDS011;36359;41.556;-8.418;2023-12-20T09:19:16;2.63;;;0.80;;
50429;SDS011;36359;41.556;-8.418;2023-12-20T09:21:43;6.47;;;0.73;;
50429;SDS011;36359;41.556;-8.418;2023-12-20T09:24:09;3.20;;;0.83;;
50429;SDS011;36359;41.556;-8.418;2023-12-20T09:26:34;5.43;;;0.70;;
50429;SDS011;36359;41.556;-8.418;2023-12-20T09:29:00;2.50;;;0.60;;
50429;SDS011;36359;41.556;-8.418;2023-12-20T09:31:26;2.97;;;0.40;;
50429;SDS011;36359;41.556;-8.418;2023-12-20T09:33:52;3.60;;;0.60;;
50429;SDS011;36359;41.556;-8.418;2023-12-20T09:36:17;5.67;;;0.50;;
50429;SDS011;36359;41.556;-8.418;2023-12-20T09:38:43;2.50;;;0.50;;
50429;SDS011;36359;41.556;-8.418;2023-12-20T09:41:09;3.07;;;0.60;;
50429;SDS011;36359;41.556;-8.418;2023-12-20T09:43:38;3.43;;;0.40;;
50429;SDS011;36359;41.556;-8.418;2023-12-20T09:46:05;3.17;;;0.63;;
50429;SDS011;36359;41.556;-8.418;2023-12-20T09:48:35;4.47;;;0.43;;
50429;SDS011;36359;41.556;-8.418;2023-12-20T09:51:02;5.07;;;0.70;;
50429;SDS011;36359;41.556;-8.418;2023-12-20T09:53:27;3.73;;;0.60;;
50429;SDS011;36359;41.556;-8.418;2023-12-20T09:55:59;3.27;;;0.50;;
50429;SDS011;36359;41.556;-8.418;2023-12-20T09:58:28;4.53;;;0.43;;
50429;SDS011;36359;41.556;-8.418;2023-12-20T10:00:53;6.93;;;0.93;;
50429;SDS011;36359;41.556;-8.418;2023-12-20T10:03:22;4.80;;;0.80;;
50429;SDS011;36359;41.556;-8.418;2023-12-20T10:05:52;4.40;;;0.77;;
50429;SDS011;36359;41.556;-8.418;2023-12-20T10:08:21;6.32;;;0.70;;
50429;SDS011;36359;41.556;-8.418;2023-12-20T10:10:48;5.03;;;0.93;;
50429;SDS011;36359;41.556;-8.418;2023-12-20T10:13:14;3.53;;;0.80;;
50429;SDS011;36359;41.556;-8.418;2023-12-20T10:15:40;6.47;;;0.70;;
50429;SDS011;36359;41.556;-8.418;2023-12-20T10:18:06;3.27;;;0.40;;
50429;SDS011;36359;41.556;-8.418;2023-12-20T10:20:32;10.33;;;1.70;;
50429;SDS011;36359;41.556;-8.418;2023-12-20T10:22:59;7.67;;;0.80;;
50429;SDS011;36359;41.556;-8.418;2023-12-20T10:25:25;5.43;;;1.47;;
50429;SDS011;36359;41.556;-8.418;2023-12-20T10:28:08;5.90;;;0.90;;
50429;SDS011;36359;41.556;-8.418;2023-12-20T10:30:45;7.13;;;0.63;;
50429;SDS011;36359;41.556;-8.418;2023-12-20T10:33:10;6.27;;;1.20;;
50429;SDS011;36359;41.556;-8.418;2023-12-20T10:35:37;10.10;;;1.00;;
50429;SDS011;36359;41.556;-8.418;2023-12-20T10:38:05;5.83;;;1.20;;
50429;SDS011;36359;41.556;-8.418;2023-12-20T10:40:35;5.13;;;0.90;;
50429;SDS011;36359;41.556;-8.418;2023-12-20T10:43:04;8.00;;;1.43;;
50429;SDS011;36359;41.556;-8.418;2023-12-20T10:45:30;4.17;;;0.83;;
50429;SDS011;36359;41.556;-8.418;2023-12-20T10:47:57;8.03;;;0.70;;
50429;SDS011;36359;41.556;-8.418;2023-12-20T10:50:30;5.47;;;0.53;;
50429;SDS011;36359;41.556;-8.418;2023-12-20T10:52:57;5.57;;;0.63;;
50429;SDS011;36359;41.556;-8.418;2023-12-20T10:55:23;8.53;;;0.80;;
50429;SDS011;36359;41.556;-8.418;2023-12-20T10:57:53;5.20;;;0.57;;
50429;SDS011;36359;41.556;-8.418;2023-12-20T11:00:25;6.17;;;0.87;;
50429;SDS011;36359;41.556;-8.418;2023-12-20T11:02:51;8.03;;;0.70;;
50429;SDS011;36359;41.556;-8.418;2023-12-20T11:07:55;4.17;;;0.83;;
50429;SDS011;36359;41.556;-8.418;2023-12-20T11:10:31;4.83;;;0.70;;
50429;SDS011;36359;41.556;-8.418;2023-12-20T11:15:30;4.10;;;0.83;;
50429;SDS011;36359;41.556;-8.418;2023-12-20T11:17:56;5.43;;;1.50;;
50429;SDS011;36359;41.556;-8.418;2023-12-20T11:20:24;6.97;;;2.40;;
50429;SDS011;36359;41.556;-8.418;2023-12-20T11:23:04;6.17;;;1.70;;
50429;SDS011;36359;41.556;-8.418;2023-12-20T11:25:31;7.70;;;1.20;;
50429;SDS011;36359;41.556;-8.418;2023-12-20T11:30:40;7.00;;;1.20;;
50429;SDS011;36359;41.556;-8.418;2023-12-20T11:33:16;4.93;;;1.17;;
50429;SDS011;36359;41.556;-8.418;2023-12-20T11:35:47;6.30;;;1.23;;
50429;SDS011;36359;41.556;-8.418;2023-12-20T11:38:13;5.80;;;0.57;;
50429;SDS011;36359;41.556;-8.418;2023-12-20T11:40:40;4.77;;;0.73;;
50429;SDS011;36359;41.556;-8.418;2023-12-20T11:43:07;4.93;;;0.63;;
50429;SDS011;36359;41.556;-8.418;2023-12-20T11:45:33;5.43;;;0.90;;
50429;SDS011;36359;41.556;-8.418;2023-12-20T11:48:00;4.43;;;0.70;;
50429;SDS011;36359;41.556;-8.418;2023-12-20T11:50:27;7.77;;;2.00;;
50429;SDS011;36359;41.556;-8.418;2023-12-20T11:52:55;5.13;;;1.07;;
50429;SDS011;36359;41.556;-8.418;2023-12-20T11:55:21;2.90;;;0.70;;
50429;SDS011;36359;41.556;-8.418;2023-12-20T11:57:47;4.30;;;1.47;;
50429;SDS011;36359;41.556;-8.418;2023-12-20T12:00:13;4.07;;;1.43;;
50429;SDS011;36359;41.556;-8.418;2023-12-20T12:02:40;3.83;;;0.87;;
50429;SDS011;36359;41.556;-8.418;2023-12-20T12:05:05;4.83;;;0.70;;
50429;SDS011;36359;41.556;-8.418;2023-12-20T12:07:33;3.67;;;1.13;;
50429;SDS011;36359;41.556;-8.418;2023-12-20T12:10:00;4.13;;;0.80;;
50429;SDS011;36359;41.556;-8.418;2023-12-20T12:12:26;7.17;;;2.20;;
50429;SDS011;36359;41.556;-8.418;2023-12-20T12:14:53;12.73;;;3.70;;
50429;SDS011;36359;41.556;-8.418;2023-12-20T12:17:19;7.03;;;1.20;;
50429;SDS011;36359;41.556;-8.418;2023-12-20T12:19:45;4.97;;;1.27;;
50429;SDS011;36359;41.556;-8.418;2023-12-20T12:22:12;5.60;;;1.30;;
50429;SDS011;36359;41.556;-8.418;2023-12-20T12:24:39;5.43;;;1.50;;
50429;SDS011;36359;41.556;-8.418;2023-12-20T12:27:06;6.30;;;0.93;;
50429;SDS011;36359;41.556;-8.418;2023-12-20T12:29:33;3.77;;;0.70;;
50429;SDS011;36359;41.556;-8.418;2023-12-20T12:31:59;4.17;;;0.60;;
50429;SDS011;36359;41.556;-8.418;2023-12-20T12:34:28;2.60;;;0.80;;
50429;SDS011;36359;41.556;-8.418;2023-12-20T12:36:55;2.63;;;0.80;;
50429;SDS011;36359;41.556;-8.418;2023-12-20T12:39:22;5.07;;;0.87;;
50429;SDS011;36359;41.556;-8.418;2023-12-20T12:41:50;4.27;;;0.67;;
50429;SDS011;36359;41.556;-8.418;2023-12-20T12:44:16;4.13;;;0.63;;
50429;SDS011;36359;41.556;-8.418;2023-12-20T12:46:43;2.37;;;0.50;;
50429;SDS011;36359;41.556;-8.418;2023-12-20T12:49:12;3.13;;;0.93;;
50429;SDS011;36359;41.556;-8.418;2023-12-20T12:51:38;1.93;;;0.60;;
50429;SDS011;36359;41.556;-8.418;2023-12-20T12:54:04;3.87;;;0.50;;
50429;SDS011;36359;41.556;-8.418;2023-12-20T12:56:30;3.00;;;1.20;;
50429;SDS011;36359;41.556;-8.418;2023-12-20T12:58:56;3.90;;;1.27;;
50429;SDS011;36359;41.556;-8.418;2023-12-20T13:01:21;2.33;;;0.60;;
50429;SDS011;36359;41.556;-8.418;2023-12-20T13:03:47;3.77;;;0.80;;
50429;SDS011;36359;41.556;-8.418;2023-12-20T13:06:13;3.60;;;1.20;;
50429;SDS011;36359;41.556;-8.418;2023-12-20T13:08:39;4.83;;;1.10;;
50429;SDS011;36359;41.556;-8.418;2023-12-20T13:11:04;4.27;;;1.40;;
50429;SDS011;36359;41.556;-8.418;2023-12-20T13:13:30;2.30;;;0.67;;
50429;SDS011;36359;41.556;-8.418;2023-12-20T13:15:56;2.53;;;0.70;;
50429;SDS011;36359;41.556;-8.418;2023-12-20T13:18:22;3.57;;;0.80;;
50429;SDS011;36359;41.556;-8.418;2023-12-20T13:20:48;3.17;;;1.07;;
50429;SDS011;36359;41.556;-8.418;2023-12-20T13:23:15;1.73;;;0.50;;
50429;SDS011;36359;41.556;-8.418;2023-12-20T13:25:44;4.97;;;0.80;;
50429;SDS011;36359;41.556;-8.418;2023-12-20T13:28:12;5.47;;;1.13;;
50429;SDS011;36359;41.556;-8.418;2023-12-20T13:30:39;2.43;;;0.77;;
50429;SDS011;36359;41.556;-8.418;2023-12-20T13:33:05;1.17;;;0.20;;
50429;SDS011;36359;41.556;-8.418;2023-12-20T13:35:31;3.57;;;0.50;;
50429;SDS011;36359;41.556;-8.418;2023-12-20T13:37:58;2.03;;;0.70;;
50429;SDS011;36359;41.556;-8.418;2023-12-20T13:40:24;6.97;;;1.00;;
50429;SDS011;36359;41.556;-8.418;2023-12-20T13:42:50;6.87;;;1.67;;
50429;SDS011;36359;41.556;-8.418;2023-12-20T13:45:16;7.53;;;0.87;;
50429;SDS011;36359;41.556;-8.418;2023-12-20T13:47:42;4.63;;;1.13;;
50429;SDS011;36359;41.556;-8.418;2023-12-20T13:50:07;5.77;;;1.17;;
50429;SDS011;36359;41.556;-8.418;2023-12-20T13:52:33;11.83;;;1.63;;
50429;SDS011;36359;41.556;-8.418;2023-12-20T13:54:59;4.00;;;0.70;;
50429;SDS011;36359;41.556;-8.418;2023-12-20T13:57:25;5.00;;;0.97;;
50429;SDS011;36359;41.556;-8.418;2023-12-20T13:59:50;3.93;;;0.93;;
50429;SDS011;36359;41.556;-8.418;2023-12-20T14:02:19;4.17;;;1.60;;
50429;SDS011;36359;41.556;-8.418;2023-12-20T14:04:45;3.53;;;0.83;;
50429;SDS011;36359;41.556;-8.418;2023-12-20T14:07:10;4.63;;;1.07;;
50429;SDS011;36359;41.556;-8.418;2023-12-20T14:09:36;3.47;;;1.07;;
50429;SDS011;36359;41.556;-8.418;2023-12-20T14:12:02;5.43;;;1.07;;
50429;SDS011;36359;41.556;-8.418;2023-12-20T14:14:28;4.50;;;1.27;;
50429;SDS011;36359;41.556;-8.418;2023-12-20T14:16:54;6.53;;;1.03;;
50429;SDS011;36359;41.556;-8.418;2023-12-20T14:19:19;4.33;;;0.87;;
50429;SDS011;36359;41.556;-8.418;2023-12-20T14:21:45;8.73;;;1.50;;
50429;SDS011;36359;41.556;-8.418;2023-12-20T14:24:14;3.43;;;0.57;;
50429;SDS011;36359;41.556;-8.418;2023-12-20T14:26:40;4.50;;;1.07;;